Forside
METAR-TAF:

METAR-TAF

Lufthavne :

Hamilton, Ohio, USA

Breddekreds: 39-21-41N, længdekreds: 084-31-15W, højde: 193 m

Aktuelle vejr

Denne rapport blev lavet for 36 minutter siden, kl. 13:53 UTC
Vind 5 kt fra nordøst
Temperatur 5°C
Fugtighed 75%
Tryk 1015 hPa
Sigt: 16.1 km
Overskyet i en højde af 2300 ft

METAR: KHAO 311353Z AUTO 04005KT 10SM OVC023 05/01 A2998 RMK AO2 SLP154 T00500011

Tid: 10:29 (14:29 UTC)


TAF: fraværende

Vejrobservationer og prognoser fra mere end 4000 lufthavne (METAR og TAF).

De gule og røde prikker repræsenterer de meteorologiske stationer.

Flyt musen over at se navnet på stationen.

Så klik over at se vejr observationer og prognoser.

At skifte det kort: Klik på de grønne knapper med et sort kors for at zoome ind; på den grønne knap med en bindestreg for at zoome ud; eller på de grønne pile for tilstødende kort.


METAR-TAF: